sensor_id;sensor_type;location;lat;lon;timestamp;P1;durP1;ratioP1;P2;durP2;ratioP2
4051;SDS011;2040;50.924;11.604;2023-05-29T00:02:12;6.13;;;3.90;;
4051;SDS011;2040;50.924;11.604;2023-05-29T00:04:38;7.90;;;3.10;;
4051;SDS011;2040;50.924;11.604;2023-05-29T00:07:04;7.80;;;3.50;;
4051;SDS011;2040;50.924;11.604;2023-05-29T00:09:30;6.47;;;3.10;;
4051;SDS011;2040;50.924;11.604;2023-05-29T00:11:55;4.63;;;3.53;;
4051;SDS011;2040;50.924;11.604;2023-05-29T00:14:21;6.80;;;3.80;;
4051;SDS011;2040;50.924;11.604;2023-05-29T00:16:48;7.30;;;3.63;;
4051;SDS011;2040;50.924;11.604;2023-05-29T00:19:15;7.40;;;3.43;;
4051;SDS011;2040;50.924;11.604;2023-05-29T00:21:46;7.23;;;3.87;;
4051;SDS011;2040;50.924;11.604;2023-05-29T00:24:14;5.67;;;3.77;;
4051;SDS011;2040;50.924;11.604;2023-05-29T00:26:40;6.17;;;3.80;;
4051;SDS011;2040;50.924;11.604;2023-05-29T00:29:06;6.10;;;3.53;;
4051;SDS011;2040;50.924;11.604;2023-05-29T00:31:31;7.40;;;3.60;;
4051;SDS011;2040;50.924;11.604;2023-05-29T00:33:57;10.53;;;3.30;;
4051;SDS011;2040;50.924;11.604;2023-05-29T00:36:23;3.60;;;2.87;;
4051;SDS011;2040;50.924;11.604;2023-05-29T00:38:49;5.70;;;3.10;;
4051;SDS011;2040;50.924;11.604;2023-05-29T00:41:14;6.50;;;3.30;;
4051;SDS011;2040;50.924;11.604;2023-05-29T00:43:41;5.10;;;2.97;;
4051;SDS011;2040;50.924;11.604;2023-05-29T00:46:07;9.00;;;3.20;;
4051;SDS011;2040;50.924;11.604;2023-05-29T00:48:34;7.93;;;3.00;;
4051;SDS011;2040;50.924;11.604;2023-05-29T00:51:00;5.80;;;3.27;;
4051;SDS011;2040;50.924;11.604;2023-05-29T00:53:25;5.43;;;3.23;;
4051;SDS011;2040;50.924;11.604;2023-05-29T00:55:52;13.90;;;3.30;;
4051;SDS011;2040;50.924;11.604;2023-05-29T00:58:18;7.17;;;3.80;;
4051;SDS011;2040;50.924;11.604;2023-05-29T01:00:45;12.13;;;3.67;;
4051;SDS011;2040;50.924;11.604;2023-05-29T01:03:10;7.70;;;4.00;;
4051;SDS011;2040;50.924;11.604;2023-05-29T01:05:39;5.37;;;3.73;;
4051;SDS011;2040;50.924;11.604;2023-05-29T01:08:06;6.73;;;3.53;;
4051;SDS011;2040;50.924;11.604;2023-05-29T01:10:32;4.20;;;2.90;;
4051;SDS011;2040;50.924;11.604;2023-05-29T01:13:11;8.03;;;3.50;;
4051;SDS011;2040;50.924;11.604;2023-05-29T01:15:46;5.53;;;3.47;;
4051;SDS011;2040;50.924;11.604;2023-05-29T01:23:56;5.90;;;3.10;;
4051;SDS011;2040;50.924;11.604;2023-05-29T01:29:32;8.13;;;4.50;;
4051;SDS011;2040;50.924;11.604;2023-05-29T01:31:59;7.00;;;4.07;;
4051;SDS011;2040;50.924;11.604;2023-05-29T01:34:26;4.60;;;3.40;;
4051;SDS011;2040;50.924;11.604;2023-05-29T01:36:53;6.50;;;4.30;;
4051;SDS011;2040;50.924;11.604;2023-05-29T01:39:18;10.83;;;3.97;;
4051;SDS011;2040;50.924;11.604;2023-05-29T01:41:45;11.40;;;3.27;;
4051;SDS011;2040;50.924;11.604;2023-05-29T01:44:12;6.33;;;4.23;;
4051;SDS011;2040;50.924;11.604;2023-05-29T01:46:39;5.30;;;3.57;;
4051;SDS011;2040;50.924;11.604;2023-05-29T01:49:06;7.83;;;4.40;;
4051;SDS011;2040;50.924;11.604;2023-05-29T01:51:33;9.10;;;4.17;;
4051;SDS011;2040;50.924;11.604;2023-05-29T01:53:59;7.37;;;3.40;;
4051;SDS011;2040;50.924;11.604;2023-05-29T01:56:27;8.87;;;4.17;;
4051;SDS011;2040;50.924;11.604;2023-05-29T01:58:55;5.43;;;3.57;;
4051;SDS011;2040;50.924;11.604;2023-05-29T02:01:21;5.13;;;3.40;;
4051;SDS011;2040;50.924;11.604;2023-05-29T02:03:47;4.33;;;3.37;;
4051;SDS011;2040;50.924;11.604;2023-05-29T02:06:13;9.93;;;4.13;;
4051;SDS011;2040;50.924;11.604;2023-05-29T02:08:38;4.13;;;3.50;;
4051;SDS011;2040;50.924;11.604;2023-05-29T02:11:04;4.10;;;3.23;;
4051;SDS011;2040;50.924;11.604;2023-05-29T02:13:30;8.73;;;4.23;;
4051;SDS011;2040;50.924;11.604;2023-05-29T02:15:56;4.80;;;3.30;;
4051;SDS011;2040;50.924;11.604;2023-05-29T02:18:21;9.93;;;3.60;;
4051;SDS011;2040;50.924;11.604;2023-05-29T02:20:47;7.97;;;4.07;;
4051;SDS011;2040;50.924;11.604;2023-05-29T02:23:13;5.30;;;3.50;;
4051;SDS011;2040;50.924;11.604;2023-05-29T02:25:40;7.83;;;4.13;;
4051;SDS011;2040;50.924;11.604;2023-05-29T02:28:06;8.93;;;4.07;;
4051;SDS011;2040;50.924;11.604;2023-05-29T02:30:31;7.67;;;4.07;;
4051;SDS011;2040;50.924;11.604;2023-05-29T02:32:57;10.67;;;3.87;;
4051;SDS011;2040;50.924;11.604;2023-05-29T02:35:22;6.37;;;4.50;;
4051;SDS011;2040;50.924;11.604;2023-05-29T02:37:51;6.87;;;3.77;;
4051;SDS011;2040;50.924;11.604;2023-05-29T02:40:18;8.43;;;4.30;;
4051;SDS011;2040;50.924;11.604;2023-05-29T02:42:44;5.20;;;3.63;;
4051;SDS011;2040;50.924;11.604;2023-05-29T02:45:10;6.10;;;3.97;;
4051;SDS011;2040;50.924;11.604;2023-05-29T02:47:36;8.07;;;4.57;;
4051;SDS011;2040;50.924;11.604;2023-05-29T02:50:02;12.07;;;3.90;;
4051;SDS011;2040;50.924;11.604;2023-05-29T02:52:28;10.53;;;4.10;;
4051;SDS011;2040;50.924;11.604;2023-05-29T02:54:55;10.40;;;3.97;;
4051;SDS011;2040;50.924;11.604;2023-05-29T02:57:21;15.40;;;4.47;;
4051;SDS011;2040;50.924;11.604;2023-05-29T02:59:46;6.53;;;3.77;;
4051;SDS011;2040;50.924;11.604;2023-05-29T03:02:12;7.93;;;3.80;;
4051;SDS011;2040;50.924;11.604;2023-05-29T03:04:37;7.07;;;4.73;;
4051;SDS011;2040;50.924;11.604;2023-05-29T03:07:03;5.27;;;3.40;;
4051;SDS011;2040;50.924;11.604;2023-05-29T03:09:29;5.07;;;3.20;;
4051;SDS011;2040;50.924;11.604;2023-05-29T03:11:54;6.80;;;3.47;;
4051;SDS011;2040;50.924;11.604;2023-05-29T03:14:20;5.97;;;3.30;;
4051;SDS011;2040;50.924;11.604;2023-05-29T03:16:46;7.03;;;2.87;;
4051;SDS011;2040;50.924;11.604;2023-05-29T03:19:12;4.80;;;2.87;;
4051;SDS011;2040;50.924;11.604;2023-05-29T03:21:38;4.73;;;2.43;;
4051;SDS011;2040;50.924;11.604;2023-05-29T03:24:03;7.33;;;3.30;;
4051;SDS011;2040;50.924;11.604;2023-05-29T03:26:29;4.73;;;3.40;;
4051;SDS011;2040;50.924;11.604;2023-05-29T03:28:55;8.37;;;2.97;;
4051;SDS011;2040;50.924;11.604;2023-05-29T03:31:20;5.37;;;2.53;;
4051;SDS011;2040;50.924;11.604;2023-05-29T03:33:46;4.63;;;2.33;;
4051;SDS011;2040;50.924;11.604;2023-05-29T03:36:12;3.40;;;2.47;;
4051;SDS011;2040;50.924;11.604;2023-05-29T03:38:38;6.10;;;3.20;;
4051;SDS011;2040;50.924;11.604;2023-05-29T03:41:04;7.93;;;3.10;;
4051;SDS011;2040;50.924;11.604;2023-05-29T03:43:29;3.70;;;2.50;;
4051;SDS011;2040;50.924;11.604;2023-05-29T03:45:55;5.10;;;3.07;;
4051;SDS011;2040;50.924;11.604;2023-05-29T03:48:21;4.13;;;2.83;;
4051;SDS011;2040;50.924;11.604;2023-05-29T03:50:46;3.50;;;2.80;;
4051;SDS011;2040;50.924;11.604;2023-05-29T03:53:12;5.40;;;3.27;;
4051;SDS011;2040;50.924;11.604;2023-05-29T03:55:38;4.77;;;2.63;;
4051;SDS011;2040;50.924;11.604;2023-05-29T03:58:03;3.60;;;2.60;;
4051;SDS011;2040;50.924;11.604;2023-05-29T04:00:29;6.40;;;2.40;;
4051;SDS011;2040;50.924;11.604;2023-05-29T04:02:55;6.00;;;3.00;;
4051;SDS011;2040;50.924;11.604;2023-05-29T04:05:21;8.13;;;3.37;;
4051;SDS011;2040;50.924;11.604;2023-05-29T04:07:46;6.77;;;4.00;;
4051;SDS011;2040;50.924;11.604;2023-05-29T04:10:12;5.10;;;2.90;;
4051;SDS011;2040;50.924;11.604;2023-05-29T04:12:38;5.40;;;3.83;;
4051;SDS011;2040;50.924;11.604;2023-05-29T04:15:03;6.87;;;4.40;;
4051;SDS011;2040;50.924;11.604;2023-05-29T04:17:30;5.00;;;3.00;;
4051;SDS011;2040;50.924;11.604;2023-05-29T04:19:55;11.77;;;3.60;;
4051;SDS011;2040;50.924;11.604;2023-05-29T04:22:21;4.47;;;3.20;;
4051;SDS011;2040;50.924;11.604;2023-05-29T04:24:46;3.73;;;2.80;;
4051;SDS011;2040;50.924;11.604;2023-05-29T04:27:12;8.93;;;3.80;;
4051;SDS011;2040;50.924;11.604;2023-05-29T04:29:41;7.43;;;4.07;;
4051;SDS011;2040;50.924;11.604;2023-05-29T04:32:07;6.27;;;3.10;;
4051;SDS011;2040;50.924;11.604;2023-05-29T04:34:34;9.50;;;3.63;;
4051;SDS011;2040;50.924;11.604;2023-05-29T04:37:00;7.60;;;3.00;;
4051;SDS011;2040;50.924;11.604;2023-05-29T04:39:27;6.47;;;4.13;;
4051;SDS011;2040;50.924;11.604;2023-05-29T04:41:53;5.43;;;3.60;;
4051;SDS011;2040;50.924;11.604;2023-05-29T04:44:19;7.10;;;3.73;;
4051;SDS011;2040;50.924;11.604;2023-05-29T04:46:45;5.60;;;3.87;;
4051;SDS011;2040;50.924;11.604;2023-05-29T04:49:12;9.00;;;3.30;;
4051;SDS011;2040;50.924;11.604;2023-05-29T04:51:40;6.87;;;3.50;;
4051;SDS011;2040;50.924;11.604;2023-05-29T04:54:06;9.40;;;3.60;;
4051;SDS011;2040;50.924;11.604;2023-05-29T04:56:33;5.97;;;3.33;;
4051;SDS011;2040;50.924;11.604;2023-05-29T04:58:59;7.10;;;3.30;;
4051;SDS011;2040;50.924;11.604;2023-05-29T05:01:25;6.83;;;3.70;;
4051;SDS011;2040;50.924;11.604;2023-05-29T05:03:50;6.63;;;3.20;;
4051;SDS011;2040;50.924;11.604;2023-05-29T05:06:20;8.27;;;3.77;;
4051;SDS011;2040;50.924;11.604;2023-05-29T05:08:50;7.00;;;3.90;;
4051;SDS011;2040;50.924;11.604;2023-05-29T05:11:16;9.10;;;4.07;;
4051;SDS011;2040;50.924;11.604;2023-05-29T05:13:43;5.13;;;3.47;;
4051;SDS011;2040;50.924;11.604;2023-05-29T05:16:08;9.50;;;3.93;;
4051;SDS011;2040;50.924;11.604;2023-05-29T05:18:34;6.63;;;3.83;;
4051;SDS011;2040;50.924;11.604;2023-05-29T05:21:00;7.10;;;3.70;;
4051;SDS011;2040;50.924;11.604;2023-05-29T05:23:28;6.53;;;3.57;;
4051;SDS011;2040;50.924;11.604;2023-05-29T05:25:53;5.90;;;3.20;;
4051;SDS011;2040;50.924;11.604;2023-05-29T05:28:19;7.47;;;3.87;;
4051;SDS011;2040;50.924;11.604;2023-05-29T05:30:45;7.73;;;3.57;;
4051;SDS011;2040;50.924;11.604;2023-05-29T05:33:10;9.83;;;4.37;;
4051;SDS011;2040;50.924;11.604;2023-05-29T05:35:36;6.00;;;3.67;;
4051;SDS011;2040;50.924;11.604;2023-05-29T05:38:02;6.33;;;4.00;;
4051;SDS011;2040;50.924;11.604;2023-05-29T05:40:27;7.03;;;4.27;;
4051;SDS011;2040;50.924;11.604;2023-05-29T05:42:53;15.00;;;4.70;;
4051;SDS011;2040;50.924;11.604;2023-05-29T05:45:18;8.80;;;4.17;;
4051;SDS011;2040;50.924;11.604;2023-05-29T05:47:45;7.93;;;3.70;;
4051;SDS011;2040;50.924;11.604;2023-05-29T05:50:11;7.33;;;3.20;;
4051;SDS011;2040;50.924;11.604;2023-05-29T05:52:37;15.67;;;5.47;;
4051;SDS011;2040;50.924;11.604;2023-05-29T05:55:03;7.20;;;3.50;;
4051;SDS011;2040;50.924;11.604;2023-05-29T05:57:28;7.93;;;3.40;;
4051;SDS011;2040;50.924;11.604;2023-05-29T05:59:54;7.20;;;3.50;;
4051;SDS011;2040;50.924;11.604;2023-05-29T06:02:20;8.20;;;4.20;;
4051;SDS011;2040;50.924;11.604;2023-05-29T06:04:46;8.83;;;4.00;;
4051;SDS011;2040;50.924;11.604;2023-05-29T06:07:11;9.70;;;3.60;;
4051;SDS011;2040;50.924;11.604;2023-05-29T06:09:37;9.73;;;4.57;;
4051;SDS011;2040;50.924;11.604;2023-05-29T06:12:03;6.60;;;3.30;;
4051;SDS011;2040;50.924;11.604;2023-05-29T06:14:28;6.63;;;4.17;;
4051;SDS011;2040;50.924;11.604;2023-05-29T06:16:54;10.00;;;4.00;;
4051;SDS011;2040;50.924;11.604;2023-05-29T06:19:21;7.17;;;3.37;;
4051;SDS011;2040;50.924;11.604;2023-05-29T06:21:46;7.77;;;3.50;;
4051;SDS011;2040;50.924;11.604;2023-05-29T06:24:12;13.30;;;4.93;;
4051;SDS011;2040;50.924;11.604;2023-05-29T06:26:38;10.10;;;4.67;;
4051;SDS011;2040;50.924;11.604;2023-05-29T06:29:04;11.03;;;3.60;;
4051;SDS011;2040;50.924;11.604;2023-05-29T06:31:31;10.97;;;4.50;;
4051;SDS011;2040;50.924;11.604;2023-05-29T06:33:58;7.30;;;3.50;;
4051;SDS011;2040;50.924;11.604;2023-05-29T06:36:23;11.53;;;4.40;;
4051;SDS011;2040;50.924;11.604;2023-05-29T06:38:49;15.47;;;4.47;;
4051;SDS011;2040;50.924;11.604;2023-05-29T06:41:16;8.17;;;3.40;;
4051;SDS011;2040;50.924;11.604;2023-05-29T06:43:42;10.40;;;4.30;;
4051;SDS011;2040;50.924;11.604;2023-05-29T06:46:07;8.30;;;3.50;;
4051;SDS011;2040;50.924;11.604;2023-05-29T06:48:36;12.60;;;4.53;;
4051;SDS011;2040;50.924;11.604;2023-05-29T06:51:01;10.43;;;4.00;;
4051;SDS011;2040;50.924;11.604;2023-05-29T06:53:36;12.30;;;4.10;;
4051;SDS011;2040;50.924;11.604;2023-05-29T06:56:02;7.93;;;4.10;;
4051;SDS011;2040;50.924;11.604;2023-05-29T06:58:30;11.57;;;4.60;;
4051;SDS011;2040;50.924;11.604;2023-05-29T07:00:56;9.80;;;4.17;;
4051;SDS011;2040;50.924;11.604;2023-05-29T07:03:21;9.47;;;4.20;;
4051;SDS011;2040;50.924;11.604;2023-05-29T07:05:47;9.20;;;3.63;;
4051;SDS011;2040;50.924;11.604;2023-05-29T07:08:12;6.83;;;3.87;;
4051;SDS011;2040;50.924;11.604;2023-05-29T07:10:38;9.57;;;3.80;;
4051;SDS011;2040;50.924;11.604;2023-05-29T07:13:04;11.03;;;3.63;;
4051;SDS011;2040;50.924;11.604;2023-05-29T07:15:31;8.00;;;4.30;;
4051;SDS011;2040;50.924;11.604;2023-05-29T07:17:57;9.60;;;4.20;;
4051;SDS011;2040;50.924;11.604;2023-05-29T07:20:22;7.67;;;3.90;;
4051;SDS011;2040;50.924;11.604;2023-05-29T07:22:48;7.83;;;4.43;;
4051;SDS011;2040;50.924;11.604;2023-05-29T07:25:13;9.10;;;4.10;;
4051;SDS011;2040;50.924;11.604;2023-05-29T07:27:39;21.80;;;4.03;;
4051;SDS011;2040;50.924;11.604;2023-05-29T07:30:05;14.17;;;3.90;;
4051;SDS011;2040;50.924;11.604;2023-05-29T07:32:32;13.57;;;4.83;;
4051;SDS011;2040;50.924;11.604;2023-05-29T07:34:57;9.87;;;4.00;;
4051;SDS011;2040;50.924;11.604;2023-05-29T07:37:23;21.43;;;5.00;;
4051;SDS011;2040;50.924;11.604;2023-05-29T07:39:49;5.80;;;4.27;;
4051;SDS011;2040;50.924;11.604;2023-05-29T07:42:14;5.97;;;3.50;;
4051;SDS011;2040;50.924;11.604;2023-05-29T07:44:40;14.27;;;4.00;;
4051;SDS011;2040;50.924;11.604;2023-05-29T07:47:07;9.27;;;4.00;;
4051;SDS011;2040;50.924;11.604;2023-05-29T07:49:33;10.67;;;4.07;;
4051;SDS011;2040;50.924;11.604;2023-05-29T07:52:00;11.03;;;4.33;;
4051;SDS011;2040;50.924;11.604;2023-05-29T07:54:26;11.20;;;3.87;;
4051;SDS011;2040;50.924;11.604;2023-05-29T07:56:52;7.67;;;3.67;;
4051;SDS011;2040;50.924;11.604;2023-05-29T07:59:17;7.43;;;3.43;;
4051;SDS011;2040;50.924;11.604;2023-05-29T08:01:43;15.17;;;4.37;;
4051;SDS011;2040;50.924;11.604;2023-05-29T08:04:09;9.40;;;3.90;;
4051;SDS011;2040;50.924;11.604;2023-05-29T08:06:35;6.93;;;4.37;;
4051;SDS011;2040;50.924;11.604;2023-05-29T08:09:01;15.03;;;4.23;;
4051;SDS011;2040;50.924;11.604;2023-05-29T08:11:26;10.00;;;4.43;;
4051;SDS011;2040;50.924;11.604;2023-05-29T08:13:52;8.43;;;3.67;;
4051;SDS011;2040;50.924;11.604;2023-05-29T08:16:18;14.03;;;4.63;;
4051;SDS011;2040;50.924;11.604;2023-05-29T08:18:43;7.60;;;4.03;;
4051;SDS011;2040;50.924;11.604;2023-05-29T08:21:09;12.57;;;4.13;;
4051;SDS011;2040;50.924;11.604;2023-05-29T08:23:35;8.77;;;3.73;;
4051;SDS011;2040;50.924;11.604;2023-05-29T08:26:01;10.00;;;3.73;;
4051;SDS011;2040;50.924;11.604;2023-05-29T08:28:28;6.87;;;3.00;;
4051;SDS011;2040;50.924;11.604;2023-05-29T08:30:53;10.07;;;4.03;;
4051;SDS011;2040;50.924;11.604;2023-05-29T08:33:19;6.30;;;3.27;;
4051;SDS011;2040;50.924;11.604;2023-05-29T08:35:44;7.37;;;3.83;;
4051;SDS011;2040;50.924;11.604;2023-05-29T08:38:10;8.73;;;4.13;;
4051;SDS011;2040;50.924;11.604;2023-05-29T08:40:36;11.53;;;4.50;;
4051;SDS011;2040;50.924;11.604;2023-05-29T08:43:21;9.23;;;3.40;;
4051;SDS011;2040;50.924;11.604;2023-05-29T08:45:53;9.17;;;3.60;;
4051;SDS011;2040;50.924;11.604;2023-05-29T08:48:22;10.67;;;3.57;;
4051;SDS011;2040;50.924;11.604;2023-05-29T08:50:49;6.97;;;3.43;;
4051;SDS011;2040;50.924;11.604;2023-05-29T08:53:17;5.47;;;3.70;;
4051;SDS011;2040;50.924;11.604;2023-05-29T08:55:44;6.83;;;3.53;;
4051;SDS011;2040;50.924;11.604;2023-05-29T08:58:12;12.47;;;3.37;;
4051;SDS011;2040;50.924;11.604;2023-05-29T09:00:39;9.80;;;3.90;;
4051;SDS011;2040;50.924;11.604;2023-05-29T09:03:06;3.80;;;3.00;;
4051;SDS011;2040;50.924;11.604;2023-05-29T09:05:32;18.27;;;4.50;;
4051;SDS011;2040;50.924;11.604;2023-05-29T09:07:58;7.20;;;3.13;;
4051;SDS011;2040;50.924;11.604;2023-05-29T09:10:24;6.70;;;3.40;;
4051;SDS011;2040;50.924;11.604;2023-05-29T09:12:53;7.07;;;3.90;;
4051;SDS011;2040;50.924;11.604;2023-05-29T09:15:19;7.00;;;3.37;;
4051;SDS011;2040;50.924;11.604;2023-05-29T09:17:56;6.50;;;3.70;;
4051;SDS011;2040;50.924;11.604;2023-05-29T09:20:22;6.73;;;2.93;;
4051;SDS011;2040;50.924;11.604;2023-05-29T09:22:52;13.40;;;2.90;;
4051;SDS011;2040;50.924;11.604;2023-05-29T09:25:25;6.00;;;3.60;;
4051;SDS011;2040;50.924;11.604;2023-05-29T09:27:54;11.50;;;3.00;;
4051;SDS011;2040;50.924;11.604;2023-05-29T09:30:33;8.83;;;3.47;;
4051;SDS011;2040;50.924;11.604;2023-05-29T09:33:06;9.10;;;3.00;;
4051;SDS011;2040;50.924;11.604;2023-05-29T09:35:34;5.67;;;3.20;;
4051;SDS011;2040;50.924;11.604;2023-05-29T09:37:59;8.10;;;3.60;;
4051;SDS011;2040;50.924;11.604;2023-05-29T09:40:26;10.77;;;3.00;;
4051;SDS011;2040;50.924;11.604;2023-05-29T09:42:54;9.03;;;3.67;;
4051;SDS011;2040;50.924;11.604;2023-05-29T09:45:20;8.60;;;3.50;;
4051;SDS011;2040;50.924;11.604;2023-05-29T09:47:46;5.27;;;2.97;;
4051;SDS011;2040;50.924;11.604;2023-05-29T09:50:18;4.73;;;3.30;;
4051;SDS011;2040;50.924;11.604;2023-05-29T09:52:45;12.60;;;3.30;;
4051;SDS011;2040;50.924;11.604;2023-05-29T09:55:12;6.43;;;2.60;;
4051;SDS011;2040;50.924;11.604;2023-05-29T09:57:43;6.23;;;3.10;;
4051;SDS011;2040;50.924;11.604;2023-05-29T10:00:11;6.20;;;2.80;;
4051;SDS011;2040;50.924;11.604;2023-05-29T10:02:38;5.40;;;2.83;;
4051;SDS011;2040;50.924;11.604;2023-05-29T10:05:05;5.20;;;3.60;;
4051;SDS011;2040;50.924;11.604;2023-05-29T10:07:33;5.50;;;2.60;;
4051;SDS011;2040;50.924;11.604;2023-05-29T10:10:02;9.43;;;3.10;;
4051;SDS011;2040;50.924;11.604;2023-05-29T10:12:31;6.83;;;3.27;;
4051;SDS011;2040;50.924;11.604;2023-05-29T10:14:59;8.33;;;2.67;;
4051;SDS011;2040;50.924;11.604;2023-05-29T10:17:28;9.33;;;3.53;;
4051;SDS011;2040;50.924;11.604;2023-05-29T10:19:58;8.77;;;3.50;;
4051;SDS011;2040;50.924;11.604;2023-05-29T10:22:26;9.73;;;3.20;;
4051;SDS011;2040;50.924;11.604;2023-05-29T10:24:52;12.60;;;3.23;;
4051;SDS011;2040;50.924;11.604;2023-05-29T10:27:20;5.03;;;3.07;;
4051;SDS011;2040;50.924;11.604;2023-05-29T10:29:48;8.33;;;3.13;;
4051;SDS011;2040;50.924;11.604;2023-05-29T10:37:51;5.57;;;2.97;;
4051;SDS011;2040;50.924;11.604;2023-05-29T10:40:23;7.80;;;3.07;;
4051;SDS011;2040;50.924;11.604;2023-05-29T10:42:50;11.23;;;3.50;;
4051;SDS011;2040;50.924;11.604;2023-05-29T10:50:44;7.90;;;3.00;;
4051;SDS011;2040;50.924;11.604;2023-05-29T10:53:15;11.93;;;3.90;;
4051;SDS011;2040;50.924;11.604;2023-05-29T10:55:42;8.83;;;3.00;;
4051;SDS011;2040;50.924;11.604;2023-05-29T10:58:12;6.37;;;2.90;;
4051;SDS011;2040;50.924;11.604;2023-05-29T11:00:39;4.47;;;2.80;;
4051;SDS011;2040;50.924;11.604;2023-05-29T11:03:09;9.70;;;3.33;;
4051;SDS011;2040;50.924;11.604;2023-05-29T11:05:55;6.63;;;3.40;;
4051;SDS011;2040;50.924;11.604;2023-05-29T11:08:22;4.30;;;3.23;;
4051;SDS011;2040;50.924;11.604;2023-05-29T11:11:14;5.83;;;2.77;;
4051;SDS011;2040;50.924;11.604;2023-05-29T11:13:40;6.70;;;3.07;;
4051;SDS011;2040;50.924;11.604;2023-05-29T11:16:35;5.03;;;2.77;;
4051;SDS011;2040;50.924;11.604;2023-05-29T11:19:06;7.23;;;3.00;;
4051;SDS011;2040;50.924;11.604;2023-05-29T11:24:21;8.90;;;4.07;;
4051;SDS011;2040;50.924;11.604;2023-05-29T11:26:47;12.93;;;6.20;;
4051;SDS011;2040;50.924;11.604;2023-05-29T11:29:14;11.80;;;4.30;;
4051;SDS011;2040;50.924;11.604;2023-05-29T11:31:40;4.47;;;3.43;;
4051;SDS011;2040;50.924;11.604;2023-05-29T11:34:06;6.77;;;3.80;;
4051;SDS011;2040;50.924;11.604;2023-05-29T11:36:37;4.57;;;3.07;;
4051;SDS011;2040;50.924;11.604;2023-05-29T11:39:03;15.30;;;3.70;;
4051;SDS011;2040;50.924;11.604;2023-05-29T11:41:29;9.50;;;3.07;;
4051;SDS011;2040;50.924;11.604;2023-05-29T11:44:02;5.90;;;2.80;;
4051;SDS011;2040;50.924;11.604;2023-05-29T11:46:30;5.03;;;3.03;;
4051;SDS011;2040;50.924;11.604;2023-05-29T11:48:57;10.20;;;3.00;;
4051;SDS011;2040;50.924;11.604;2023-05-29T11:51:23;5.50;;;2.70;;
4051;SDS011;2040;50.924;11.604;2023-05-29T11:53:49;4.83;;;2.20;;
4051;SDS011;2040;50.924;11.604;2023-05-29T11:56:18;6.27;;;2.80;;
4051;SDS011;2040;50.924;11.604;2023-05-29T11:58:43;5.03;;;2.40;;
4051;SDS011;2040;50.924;11.604;2023-05-29T12:01:10;5.33;;;2.40;;
4051;SDS011;2040;50.924;11.604;2023-05-29T12:03:39;5.70;;;2.80;;
4051;SDS011;2040;50.924;11.604;2023-05-29T12:06:06;6.00;;;2.83;;
4051;SDS011;2040;50.924;11.604;2023-05-29T12:08:33;7.87;;;2.93;;
4051;SDS011;2040;50.924;11.604;2023-05-29T12:10:59;4.53;;;2.50;;
4051;SDS011;2040;50.924;11.604;2023-05-29T12:13:24;6.40;;;3.03;;
4051;SDS011;2040;50.924;11.604;2023-05-29T12:15:52;8.43;;;2.23;;
4051;SDS011;2040;50.924;11.604;2023-05-29T12:18:19;5.60;;;2.17;;
4051;SDS011;2040;50.924;11.604;2023-05-29T12:20:45;3.80;;;2.40;;
4051;SDS011;2040;50.924;11.604;2023-05-29T12:23:10;5.77;;;2.70;;
4051;SDS011;2040;50.924;11.604;2023-05-29T12:25:39;8.93;;;3.10;;
4051;SDS011;2040;50.924;11.604;2023-05-29T12:28:05;5.97;;;2.90;;
4051;SDS011;2040;50.924;11.604;2023-05-29T12:30:31;6.57;;;2.53;;
4051;SDS011;2040;50.924;11.604;2023-05-29T12:33:01;4.47;;;2.63;;
4051;SDS011;2040;50.924;11.604;2023-05-29T12:35:28;4.53;;;2.53;;
4051;SDS011;2040;50.924;11.604;2023-05-29T12:37:55;4.77;;;2.23;;
4051;SDS011;2040;50.924;11.604;2023-05-29T12:40:28;7.23;;;2.47;;
4051;SDS011;2040;50.924;11.604;2023-05-29T12:42:55;5.37;;;2.73;;
4051;SDS011;2040;50.924;11.604;2023-05-29T12:45:29;5.00;;;2.43;;
4051;SDS011;2040;50.924;11.604;2023-05-29T12:47:56;8.23;;;2.77;;
4051;SDS011;2040;50.924;11.604;2023-05-29T12:50:26;5.07;;;2.53;;
4051;SDS011;2040;50.924;11.604;2023-05-29T12:52:54;9.80;;;2.87;;
4051;SDS011;2040;50.924;11.604;2023-05-29T12:55:21;4.37;;;2.43;;
4051;SDS011;2040;50.924;11.604;2023-05-29T12:57:46;8.47;;;2.80;;
4051;SDS011;2040;50.924;11.604;2023-05-29T13:00:13;3.90;;;2.67;;
4051;SDS011;2040;50.924;11.604;2023-05-29T13:02:39;5.83;;;3.00;;
4051;SDS011;2040;50.924;11.604;2023-05-29T13:05:04;8.10;;;2.60;;
4051;SDS011;2040;50.924;11.604;2023-05-29T13:07:31;4.83;;;2.50;;
4051;SDS011;2040;50.924;11.604;2023-05-29T13:09:57;7.37;;;2.47;;
4051;SDS011;2040;50.924;11.604;2023-05-29T13:12:22;3.10;;;2.07;;
4051;SDS011;2040;50.924;11.604;2023-05-29T13:14:48;5.53;;;2.73;;
4051;SDS011;2040;50.924;11.604;2023-05-29T13:17:13;6.97;;;2.80;;
4051;SDS011;2040;50.924;11.604;2023-05-29T13:19:39;5.07;;;2.33;;
4051;SDS011;2040;50.924;11.604;2023-05-29T13:22:05;8.13;;;2.87;;
4051;SDS011;2040;50.924;11.604;2023-05-29T13:24:30;5.07;;;2.43;;
4051;SDS011;2040;50.924;11.604;2023-05-29T13:26:56;4.83;;;2.17;;
4051;SDS011;2040;50.924;11.604;2023-05-29T13:29:21;6.70;;;2.70;;
4051;SDS011;2040;50.924;11.604;2023-05-29T13:31:47;5.47;;;2.43;;
4051;SDS011;2040;50.924;11.604;2023-05-29T13:34:12;10.17;;;3.53;;
4051;SDS011;2040;50.924;11.604;2023-05-29T13:36:38;7.33;;;2.50;;
4051;SDS011;2040;50.924;11.604;2023-05-29T13:39:03;6.37;;;2.90;;
4051;SDS011;2040;50.924;11.604;2023-05-29T13:41:30;6.73;;;2.50;;
4051;SDS011;2040;50.924;11.604;2023-05-29T13:43:56;8.43;;;3.10;;
4051;SDS011;2040;50.924;11.604;2023-05-29T13:46:21;5.03;;;2.53;;
4051;SDS011;2040;50.924;11.604;2023-05-29T13:48:47;7.37;;;2.63;;
4051;SDS011;2040;50.924;11.604;2023-05-29T13:51:13;5.30;;;2.70;;
4051;SDS011;2040;50.924;11.604;2023-05-29T13:53:38;5.30;;;2.80;;
4051;SDS011;2040;50.924;11.604;2023-05-29T13:56:04;13.97;;;2.40;;
4051;SDS011;2040;50.924;11.604;2023-05-29T13:58:29;7.10;;;2.40;;
4051;SDS011;2040;50.924;11.604;2023-05-29T14:00:55;5.03;;;2.30;;
4051;SDS011;2040;50.924;11.604;2023-05-29T14:03:21;5.10;;;2.60;;
4051;SDS011;2040;50.924;11.604;2023-05-29T14:05:49;5.93;;;2.60;;
4051;SDS011;2040;50.924;11.604;2023-05-29T14:08:14;8.17;;;2.43;;
4051;SDS011;2040;50.924;11.604;2023-05-29T14:10:40;2.73;;;2.30;;
4051;SDS011;2040;50.924;11.604;2023-05-29T14:13:05;4.27;;;2.50;;
4051;SDS011;2040;50.924;11.604;2023-05-29T14:15:31;6.37;;;2.83;;
4051;SDS011;2040;50.924;11.604;2023-05-29T14:17:56;5.60;;;2.53;;
4051;SDS011;2040;50.924;11.604;2023-05-29T14:20:22;5.43;;;2.70;;
4051;SDS011;2040;50.924;11.604;2023-05-29T14:22:47;4.40;;;2.80;;
4051;SDS011;2040;50.924;11.604;2023-05-29T14:25:13;10.70;;;2.40;;
4051;SDS011;2040;50.924;11.604;2023-05-29T14:27:39;7.23;;;2.77;;
4051;SDS011;2040;50.924;11.604;2023-05-29T14:30:05;7.83;;;3.33;;
4051;SDS011;2040;50.924;11.604;2023-05-29T14:32:31;6.30;;;3.03;;
4051;SDS011;2040;50.924;11.604;2023-05-29T14:34:56;6.90;;;2.90;;
4051;SDS011;2040;50.924;11.604;2023-05-29T14:37:23;6.20;;;2.67;;
4051;SDS011;2040;50.924;11.604;2023-05-29T14:39:48;5.63;;;2.90;;
4051;SDS011;2040;50.924;11.604;2023-05-29T14:42:14;8.33;;;2.83;;
4051;SDS011;2040;50.924;11.604;2023-05-29T14:44:41;5.03;;;2.40;;
4051;SDS011;2040;50.924;11.604;2023-05-29T14:47:07;7.70;;;3.10;;
4051;SDS011;2040;50.924;11.604;2023-05-29T14:49:32;6.40;;;2.63;;
4051;SDS011;2040;50.924;11.604;2023-05-29T14:51:58;6.03;;;2.47;;
4051;SDS011;2040;50.924;11.604;2023-05-29T14:54:24;5.83;;;2.53;;
4051;SDS011;2040;50.924;11.604;2023-05-29T14:56:50;4.20;;;2.27;;
4051;SDS011;2040;50.924;11.604;2023-05-29T14:59:16;6.43;;;2.97;;
4051;SDS011;2040;50.924;11.604;2023-05-29T15:01:42;4.63;;;2.73;;
4051;SDS011;2040;50.924;11.604;2023-05-29T15:04:07;4.40;;;2.40;;
4051;SDS011;2040;50.924;11.604;2023-05-29T15:06:34;5.10;;;2.90;;
4051;SDS011;2040;50.924;11.604;2023-05-29T15:09:00;8.27;;;3.00;;
4051;SDS011;2040;50.924;11.604;2023-05-29T15:11:28;6.03;;;2.90;;
4051;SDS011;2040;50.924;11.604;2023-05-29T15:13:54;3.87;;;2.00;;
4051;SDS011;2040;50.924;11.604;2023-05-29T15:16:20;5.30;;;2.80;;
4051;SDS011;2040;50.924;11.604;2023-05-29T15:18:46;7.13;;;3.17;;
4051;SDS011;2040;50.924;11.604;2023-05-29T15:21:11;4.57;;;2.30;;